sensor_id;sensor_type;location;lat;lon;timestamp;temperature;humidity
77039;DHT22;65970;50.476;4.840;2023-12-20T00:02:21;8.60;46.80
77039;DHT22;65970;50.476;4.840;2023-12-20T00:07:21;8.60;46.80
77039;DHT22;65970;50.476;4.840;2023-12-20T00:12:22;8.60;46.70
77039;DHT22;65970;50.476;4.840;2023-12-20T00:17:22;8.60;46.80
77039;DHT22;65970;50.476;4.840;2023-12-20T00:22:23;8.60;46.60
77039;DHT22;65970;50.476;4.840;2023-12-20T00:27:23;8.50;46.40
77039;DHT22;65970;50.476;4.840;2023-12-20T00:32:24;8.50;46.20
77039;DHT22;65970;50.476;4.840;2023-12-20T00:37:24;8.50;46.20
77039;DHT22;65970;50.476;4.840;2023-12-20T00:42:25;8.50;46.10
77039;DHT22;65970;50.476;4.840;2023-12-20T00:47:26;8.50;45.90
77039;DHT22;65970;50.476;4.840;2023-12-20T00:52:26;8.40;45.70
77039;DHT22;65970;50.476;4.840;2023-12-20T00:57:27;8.40;45.60
77039;DHT22;65970;50.476;4.840;2023-12-20T01:02:27;8.40;45.50
77039;DHT22;65970;50.476;4.840;2023-12-20T01:07:28;8.40;45.50
77039;DHT22;65970;50.476;4.840;2023-12-20T01:12:28;8.40;45.50
77039;DHT22;65970;50.476;4.840;2023-12-20T01:17:29;8.30;45.50
77039;DHT22;65970;50.476;4.840;2023-12-20T01:22:29;8.30;45.50
77039;DHT22;65970;50.476;4.840;2023-12-20T01:27:30;8.30;45.60
77039;DHT22;65970;50.476;4.840;2023-12-20T01:32:31;8.30;45.50
77039;DHT22;65970;50.476;4.840;2023-12-20T01:37:31;8.20;45.50
77039;DHT22;65970;50.476;4.840;2023-12-20T01:42:32;8.30;45.50
77039;DHT22;65970;50.476;4.840;2023-12-20T01:47:32;8.20;45.40
77039;DHT22;65970;50.476;4.840;2023-12-20T01:52:34;8.20;45.30
77039;DHT22;65970;50.476;4.840;2023-12-20T01:57:35;8.20;45.20
77039;DHT22;65970;50.476;4.840;2023-12-20T02:02:37;8.20;45.20
77039;DHT22;65970;50.476;4.840;2023-12-20T02:07:39;8.10;45.20
77039;DHT22;65970;50.476;4.840;2023-12-20T02:12:40;8.10;45.20
77039;DHT22;65970;50.476;4.840;2023-12-20T02:17:40;8.10;45.10
77039;DHT22;65970;50.476;4.840;2023-12-20T02:22:41;8.10;45.20
77039;DHT22;65970;50.476;4.840;2023-12-20T02:27:42;8.10;45.20
77039;DHT22;65970;50.476;4.840;2023-12-20T02:32:42;8.00;45.10
77039;DHT22;65970;50.476;4.840;2023-12-20T02:37:43;8.00;45.20
77039;DHT22;65970;50.476;4.840;2023-12-20T02:42:43;8.00;45.10
77039;DHT22;65970;50.476;4.840;2023-12-20T02:47:44;8.00;45.10
77039;DHT22;65970;50.476;4.840;2023-12-20T02:52:45;8.00;45.10
77039;DHT22;65970;50.476;4.840;2023-12-20T02:57:45;7.90;45.20
77039;DHT22;65970;50.476;4.840;2023-12-20T03:02:46;7.90;45.10
77039;DHT22;65970;50.476;4.840;2023-12-20T03:07:46;7.90;45.20
77039;DHT22;65970;50.476;4.840;2023-12-20T03:12:47;7.90;45.20
77039;DHT22;65970;50.476;4.840;2023-12-20T03:17:47;7.80;45.10
77039;DHT22;65970;50.476;4.840;2023-12-20T03:22:48;7.80;45.10
77039;DHT22;65970;50.476;4.840;2023-12-20T03:27:48;7.80;45.00
77039;DHT22;65970;50.476;4.840;2023-12-20T03:32:49;7.80;45.10
77039;DHT22;65970;50.476;4.840;2023-12-20T03:37:49;7.70;45.20
77039;DHT22;65970;50.476;4.840;2023-12-20T03:42:50;7.70;45.10
77039;DHT22;65970;50.476;4.840;2023-12-20T03:47:51;7.70;45.10
77039;DHT22;65970;50.476;4.840;2023-12-20T03:52:51;7.70;45.10
77039;DHT22;65970;50.476;4.840;2023-12-20T03:57:52;7.70;45.10
77039;DHT22;65970;50.476;4.840;2023-12-20T04:02:53;7.70;45.10
77039;DHT22;65970;50.476;4.840;2023-12-20T04:07:53;7.60;45.00
77039;DHT22;65970;50.476;4.840;2023-12-20T04:12:54;7.60;45.10
77039;DHT22;65970;50.476;4.840;2023-12-20T04:17:54;7.60;45.10
77039;DHT22;65970;50.476;4.840;2023-12-20T04:22:55;7.60;45.20
77039;DHT22;65970;50.476;4.840;2023-12-20T04:27:55;7.60;45.20
77039;DHT22;65970;50.476;4.840;2023-12-20T04:32:56;7.60;45.30
77039;DHT22;65970;50.476;4.840;2023-12-20T04:37:56;7.60;45.30
77039;DHT22;65970;50.476;4.840;2023-12-20T04:42:57;7.50;45.30
77039;DHT22;65970;50.476;4.840;2023-12-20T04:47:57;7.60;45.30
77039;DHT22;65970;50.476;4.840;2023-12-20T04:52:58;7.50;45.40
77039;DHT22;65970;50.476;4.840;2023-12-20T04:57:58;7.50;45.30
77039;DHT22;65970;50.476;4.840;2023-12-20T05:02:59;7.50;45.40
77039;DHT22;65970;50.476;4.840;2023-12-20T05:08:00;7.50;45.40
77039;DHT22;65970;50.476;4.840;2023-12-20T05:13:00;7.50;45.40
77039;DHT22;65970;50.476;4.840;2023-12-20T05:18:01;7.50;45.40
77039;DHT22;65970;50.476;4.840;2023-12-20T05:23:01;7.50;45.40
77039;DHT22;65970;50.476;4.840;2023-12-20T05:28:02;7.50;45.40
77039;DHT22;65970;50.476;4.840;2023-12-20T05:33:02;7.50;45.40
77039;DHT22;65970;50.476;4.840;2023-12-20T05:38:03;7.50;45.40
77039;DHT22;65970;50.476;4.840;2023-12-20T05:43:04;7.50;45.40
77039;DHT22;65970;50.476;4.840;2023-12-20T05:48:04;7.50;45.40
77039;DHT22;65970;50.476;4.840;2023-12-20T05:53:05;7.40;45.30
77039;DHT22;65970;50.476;4.840;2023-12-20T05:58:05;7.50;45.40
77039;DHT22;65970;50.476;4.840;2023-12-20T06:03:06;7.50;45.40
77039;DHT22;65970;50.476;4.840;2023-12-20T06:08:07;7.50;45.40
77039;DHT22;65970;50.476;4.840;2023-12-20T06:13:07;7.40;45.30
77039;DHT22;65970;50.476;4.840;2023-12-20T06:18:08;7.40;45.30
77039;DHT22;65970;50.476;4.840;2023-12-20T06:23:08;7.50;45.40
77039;DHT22;65970;50.476;4.840;2023-12-20T06:28:09;7.50;45.40
77039;DHT22;65970;50.476;4.840;2023-12-20T06:33:09;7.40;45.30
77039;DHT22;65970;50.476;4.840;2023-12-20T06:38:10;7.40;45.30
77039;DHT22;65970;50.476;4.840;2023-12-20T06:43:11;7.40;45.30
77039;DHT22;65970;50.476;4.840;2023-12-20T06:48:12;7.40;45.30
77039;DHT22;65970;50.476;4.840;2023-12-20T06:53:12;7.40;44.30
77039;DHT22;65970;50.476;4.840;2023-12-20T06:58:13;7.40;45.30
77039;DHT22;65970;50.476;4.840;2023-12-20T07:03:13;7.40;45.20
77039;DHT22;65970;50.476;4.840;2023-12-20T07:08:14;7.40;45.30
77039;DHT22;65970;50.476;4.840;2023-12-20T07:13:14;7.40;45.30
77039;DHT22;65970;50.476;4.840;2023-12-20T07:18:15;7.40;45.20
77039;DHT22;65970;50.476;4.840;2023-12-20T07:23:15;7.40;45.20
77039;DHT22;65970;50.476;4.840;2023-12-20T07:28:16;7.30;45.20
77039;DHT22;65970;50.476;4.840;2023-12-20T07:33:17;7.30;45.20
77039;DHT22;65970;50.476;4.840;2023-12-20T07:38:17;7.30;45.10
77039;DHT22;65970;50.476;4.840;2023-12-20T07:43:18;7.30;45.10
77039;DHT22;65970;50.476;4.840;2023-12-20T07:48:18;7.30;45.10
77039;DHT22;65970;50.476;4.840;2023-12-20T07:53:19;7.30;45.10
77039;DHT22;65970;50.476;4.840;2023-12-20T07:58:20;7.30;45.10
77039;DHT22;65970;50.476;4.840;2023-12-20T08:03:20;7.30;45.10
77039;DHT22;65970;50.476;4.840;2023-12-20T08:08:21;7.30;45.10
77039;DHT22;65970;50.476;4.840;2023-12-20T08:13:21;7.20;45.00
77039;DHT22;65970;50.476;4.840;2023-12-20T08:18:22;7.20;45.00
77039;DHT22;65970;50.476;4.840;2023-12-20T08:23:22;7.20;45.00
77039;DHT22;65970;50.476;4.840;2023-12-20T08:28:23;7.20;44.90
77039;DHT22;65970;50.476;4.840;2023-12-20T08:33:23;7.20;44.90
77039;DHT22;65970;50.476;4.840;2023-12-20T08:38:24;7.20;44.90
77039;DHT22;65970;50.476;4.840;2023-12-20T08:43:25;7.10;45.00
77039;DHT22;65970;50.476;4.840;2023-12-20T08:48:25;7.10;44.90
77039;DHT22;65970;50.476;4.840;2023-12-20T08:53:26;7.10;44.90
77039;DHT22;65970;50.476;4.840;2023-12-20T08:58:26;7.10;44.90
77039;DHT22;65970;50.476;4.840;2023-12-20T09:03:27;7.10;45.00
77039;DHT22;65970;50.476;4.840;2023-12-20T09:08:27;7.10;45.10
77039;DHT22;65970;50.476;4.840;2023-12-20T09:13:28;7.10;45.00
77039;DHT22;65970;50.476;4.840;2023-12-20T09:18:29;7.10;45.10
77039;DHT22;65970;50.476;4.840;2023-12-20T09:23:29;7.20;45.10
77039;DHT22;65970;50.476;4.840;2023-12-20T09:28:30;7.20;45.00
77039;DHT22;65970;50.476;4.840;2023-12-20T09:33:30;7.20;45.10
77039;DHT22;65970;50.476;4.840;2023-12-20T09:38:31;7.20;45.10
77039;DHT22;65970;50.476;4.840;2023-12-20T09:43:33;7.20;45.20
77039;DHT22;65970;50.476;4.840;2023-12-20T09:48:36;7.20;45.10
77039;DHT22;65970;50.476;4.840;2023-12-20T09:53:38;7.20;45.20
77039;DHT22;65970;50.476;4.840;2023-12-20T09:58:40;7.20;45.10
77039;DHT22;65970;50.476;4.840;2023-12-20T10:03:41;7.30;45.20
77039;DHT22;65970;50.476;4.840;2023-12-20T10:08:41;7.30;45.30
77039;DHT22;65970;50.476;4.840;2023-12-20T10:13:43;7.30;45.20
77039;DHT22;65970;50.476;4.840;2023-12-20T10:18:45;7.30;45.20
77039;DHT22;65970;50.476;4.840;2023-12-20T10:23:46;7.30;45.30
77039;DHT22;65970;50.476;4.840;2023-12-20T10:28:50;7.30;45.30
77039;DHT22;65970;50.476;4.840;2023-12-20T10:33:51;7.30;45.30
77039;DHT22;65970;50.476;4.840;2023-12-20T10:38:52;7.40;45.30
77039;DHT22;65970;50.476;4.840;2023-12-20T10:43:57;7.40;45.30
77039;DHT22;65970;50.476;4.840;2023-12-20T10:48:59;7.40;45.30
77039;DHT22;65970;50.476;4.840;2023-12-20T10:54:02;7.40;45.20
77039;DHT22;65970;50.476;4.840;2023-12-20T10:59:03;7.40;45.20
77039;DHT22;65970;50.476;4.840;2023-12-20T11:04:06;7.50;45.40
77039;DHT22;65970;50.476;4.840;2023-12-20T11:09:24;7.40;44.30
77039;DHT22;65970;50.476;4.840;2023-12-20T11:14:47;7.40;45.20
77039;DHT22;65970;50.476;4.840;2023-12-20T11:25:07;7.50;45.30
77039;DHT22;65970;50.476;4.840;2023-12-20T11:30:08;7.50;45.40
77039;DHT22;65970;50.476;4.840;2023-12-20T11:40:16;7.60;45.30
77039;DHT22;65970;50.476;4.840;2023-12-20T11:45:19;7.60;45.30
77039;DHT22;65970;50.476;4.840;2023-12-20T11:50:21;7.60;45.40
77039;DHT22;65970;50.476;4.840;2023-12-20T11:55:22;7.60;45.40
77039;DHT22;65970;50.476;4.840;2023-12-20T12:00:23;7.60;45.10
77039;DHT22;65970;50.476;4.840;2023-12-20T12:05:24;7.60;45.10
77039;DHT22;65970;50.476;4.840;2023-12-20T12:10:25;7.70;45.20
77039;DHT22;65970;50.476;4.840;2023-12-20T12:15:26;7.70;45.20
77039;DHT22;65970;50.476;4.840;2023-12-20T12:20:26;7.70;45.20
77039;DHT22;65970;50.476;4.840;2023-12-20T12:25:28;7.70;45.10
77039;DHT22;65970;50.476;4.840;2023-12-20T12:30:29;7.70;45.10
77039;DHT22;65970;50.476;4.840;2023-12-20T12:35:29;7.80;45.00
77039;DHT22;65970;50.476;4.840;2023-12-20T12:40:34;7.80;45.10
77039;DHT22;65970;50.476;4.840;2023-12-20T12:45:37;7.80;45.10
77039;DHT22;65970;50.476;4.840;2023-12-20T12:50:38;7.80;45.10
77039;DHT22;65970;50.476;4.840;2023-12-20T12:55:38;7.80;45.10
77039;DHT22;65970;50.476;4.840;2023-12-20T13:00:39;7.80;45.10
77039;DHT22;65970;50.476;4.840;2023-12-20T13:05:39;7.80;45.20
77039;DHT22;65970;50.476;4.840;2023-12-20T13:10:40;7.80;45.20
77039;DHT22;65970;50.476;4.840;2023-12-20T13:15:40;7.80;45.10
77039;DHT22;65970;50.476;4.840;2023-12-20T13:20:41;7.90;45.20
77039;DHT22;65970;50.476;4.840;2023-12-20T13:25:42;7.90;45.30
77039;DHT22;65970;50.476;4.840;2023-12-20T13:30:42;7.90;45.30
77039;DHT22;65970;50.476;4.840;2023-12-20T13:35:43;7.90;45.30
77039;DHT22;65970;50.476;4.840;2023-12-20T13:40:43;7.90;45.40
77039;DHT22;65970;50.476;4.840;2023-12-20T13:45:44;8.00;45.40
77039;DHT22;65970;50.476;4.840;2023-12-20T13:50:44;8.00;45.20
77039;DHT22;65970;50.476;4.840;2023-12-20T13:55:45;8.00;45.30
77039;DHT22;65970;50.476;4.840;2023-12-20T14:00:45;8.00;45.30
77039;DHT22;65970;50.476;4.840;2023-12-20T14:05:46;8.00;45.40
77039;DHT22;65970;50.476;4.840;2023-12-20T14:10:47;8.10;45.50
77039;DHT22;65970;50.476;4.840;2023-12-20T14:15:47;8.10;45.30
77039;DHT22;65970;50.476;4.840;2023-12-20T14:20:48;8.10;45.40
77039;DHT22;65970;50.476;4.840;2023-12-20T14:25:48;8.10;45.50
77039;DHT22;65970;50.476;4.840;2023-12-20T14:30:49;8.10;45.30
77039;DHT22;65970;50.476;4.840;2023-12-20T14:35:50;8.10;45.30
77039;DHT22;65970;50.476;4.840;2023-12-20T14:40:50;8.20;45.30
77039;DHT22;65970;50.476;4.840;2023-12-20T14:45:51;8.20;45.20
77039;DHT22;65970;50.476;4.840;2023-12-20T14:50:51;8.20;45.20
77039;DHT22;65970;50.476;4.840;2023-12-20T14:55:52;8.20;45.20
77039;DHT22;65970;50.476;4.840;2023-12-20T15:00:52;8.20;45.10
77039;DHT22;65970;50.476;4.840;2023-12-20T15:05:53;8.20;45.20
77039;DHT22;65970;50.476;4.840;2023-12-20T15:10:53;8.20;45.40
77039;DHT22;65970;50.476;4.840;2023-12-20T15:15:54;8.20;45.30
77039;DHT22;65970;50.476;4.840;2023-12-20T15:20:54;8.20;45.30
77039;DHT22;65970;50.476;4.840;2023-12-20T15:25:55;8.20;45.30
77039;DHT22;65970;50.476;4.840;2023-12-20T15:30:55;8.30;45.40
77039;DHT22;65970;50.476;4.840;2023-12-20T15:35:56;8.30;45.40
77039;DHT22;65970;50.476;4.840;2023-12-20T15:40:56;8.30;45.40
77039;DHT22;65970;50.476;4.840;2023-12-20T15:45:57;8.30;45.50
77039;DHT22;65970;50.476;4.840;2023-12-20T15:50:58;8.30;45.40
77039;DHT22;65970;50.476;4.840;2023-12-20T15:55:58;8.30;45.40
77039;DHT22;65970;50.476;4.840;2023-12-20T16:00:59;8.30;45.50
77039;DHT22;65970;50.476;4.840;2023-12-20T16:06:00;8.30;45.50
77039;DHT22;65970;50.476;4.840;2023-12-20T16:11:00;8.30;45.40
77039;DHT22;65970;50.476;4.840;2023-12-20T16:16:02;8.40;45.50
77039;DHT22;65970;50.476;4.840;2023-12-20T16:21:03;8.40;45.50
77039;DHT22;65970;50.476;4.840;2023-12-20T16:26:04;8.40;45.60
77039;DHT22;65970;50.476;4.840;2023-12-20T16:31:04;8.40;45.50
77039;DHT22;65970;50.476;4.840;2023-12-20T16:36:05;8.40;45.60
77039;DHT22;65970;50.476;4.840;2023-12-20T16:41:06;8.40;45.70
77039;DHT22;65970;50.476;4.840;2023-12-20T16:46:06;8.40;45.60
77039;DHT22;65970;50.476;4.840;2023-12-20T16:51:07;8.40;45.60
77039;DHT22;65970;50.476;4.840;2023-12-20T16:56:07;8.40;45.70
77039;DHT22;65970;50.476;4.840;2023-12-20T17:01:08;8.40;45.70
77039;DHT22;65970;50.476;4.840;2023-12-20T17:06:09;8.40;45.80
77039;DHT22;65970;50.476;4.840;2023-12-20T17:11:09;8.50;45.90
77039;DHT22;65970;50.476;4.840;2023-12-20T17:16:10;8.50;45.90
77039;DHT22;65970;50.476;4.840;2023-12-20T17:21:10;8.50;45.90
77039;DHT22;65970;50.476;4.840;2023-12-20T17:26:14;8.50;46.00
77039;DHT22;65970;50.476;4.840;2023-12-20T17:31:14;8.50;45.90
77039;DHT22;65970;50.476;4.840;2023-12-20T17:36:15;8.50;46.00
77039;DHT22;65970;50.476;4.840;2023-12-20T17:41:15;8.50;46.00
77039;DHT22;65970;50.476;4.840;2023-12-20T17:46:16;8.50;46.00
77039;DHT22;65970;50.476;4.840;2023-12-20T17:51:17;8.50;46.10
77039;DHT22;65970;50.476;4.840;2023-12-20T17:56:17;8.50;46.10
77039;DHT22;65970;50.476;4.840;2023-12-20T18:01:18;8.60;46.20
77039;DHT22;65970;50.476;4.840;2023-12-20T18:06:18;8.60;46.20
77039;DHT22;65970;50.476;4.840;2023-12-20T18:11:19;8.60;46.30
77039;DHT22;65970;50.476;4.840;2023-12-20T18:16:19;8.60;46.30
77039;DHT22;65970;50.476;4.840;2023-12-20T18:21:20;8.60;46.30
77039;DHT22;65970;50.476;4.840;2023-12-20T18:26:21;8.60;46.20
77039;DHT22;65970;50.476;4.840;2023-12-20T18:31:21;8.60;46.30
77039;DHT22;65970;50.476;4.840;2023-12-20T18:36:22;8.60;46.30
77039;DHT22;65970;50.476;4.840;2023-12-20T18:41:23;8.60;46.30
77039;DHT22;65970;50.476;4.840;2023-12-20T18:46:24;8.60;46.40
77039;DHT22;65970;50.476;4.840;2023-12-20T18:51:24;8.60;46.40
77039;DHT22;65970;50.476;4.840;2023-12-20T18:56:25;8.60;46.40
77039;DHT22;65970;50.476;4.840;2023-12-20T19:01:25;8.70;46.60
77039;DHT22;65970;50.476;4.840;2023-12-20T19:06:26;8.70;46.60
77039;DHT22;65970;50.476;4.840;2023-12-20T19:11:26;8.70;46.60
77039;DHT22;65970;50.476;4.840;2023-12-20T19:16:27;8.70;46.70
77039;DHT22;65970;50.476;4.840;2023-12-20T19:21:27;8.70;46.70
77039;DHT22;65970;50.476;4.840;2023-12-20T19:26:28;8.70;46.60
77039;DHT22;65970;50.476;4.840;2023-12-20T19:31:31;8.70;46.60
77039;DHT22;65970;50.476;4.840;2023-12-20T19:36:32;8.80;46.60
77039;DHT22;65970;50.476;4.840;2023-12-20T19:41:32;8.80;46.60
77039;DHT22;65970;50.476;4.840;2023-12-20T19:46:33;8.80;46.70
77039;DHT22;65970;50.476;4.840;2023-12-20T19:51:33;8.80;46.70
77039;DHT22;65970;50.476;4.840;2023-12-20T19:56:34;8.80;46.60
77039;DHT22;65970;50.476;4.840;2023-12-20T20:01:34;8.80;46.70
77039;DHT22;65970;50.476;4.840;2023-12-20T20:06:35;8.80;46.70
77039;DHT22;65970;50.476;4.840;2023-12-20T20:11:36;8.80;46.70
77039;DHT22;65970;50.476;4.840;2023-12-20T20:16:36;8.90;46.80
77039;DHT22;65970;50.476;4.840;2023-12-20T20:21:37;8.90;46.90
77039;DHT22;65970;50.476;4.840;2023-12-20T20:26:37;8.90;46.80
77039;DHT22;65970;50.476;4.840;2023-12-20T20:31:38;8.90;46.90
77039;DHT22;65970;50.476;4.840;2023-12-20T20:36:38;8.90;46.80
77039;DHT22;65970;50.476;4.840;2023-12-20T20:41:39;8.90;46.80
77039;DHT22;65970;50.476;4.840;2023-12-20T20:46:40;8.90;46.90
77039;DHT22;65970;50.476;4.840;2023-12-20T20:51:40;9.00;46.90
77039;DHT22;65970;50.476;4.840;2023-12-20T20:56:41;9.00;46.90
77039;DHT22;65970;50.476;4.840;2023-12-20T21:01:42;9.00;47.00
77039;DHT22;65970;50.476;4.840;2023-12-20T21:06:42;9.00;47.10
77039;DHT22;65970;50.476;4.840;2023-12-20T21:11:43;9.00;47.00
77039;DHT22;65970;50.476;4.840;2023-12-20T21:16:43;9.00;47.00
77039;DHT22;65970;50.476;4.840;2023-12-20T21:21:44;9.00;47.10
77039;DHT22;65970;50.476;4.840;2023-12-20T21:26:44;9.00;47.10
77039;DHT22;65970;50.476;4.840;2023-12-20T21:31:45;9.00;47.20
77039;DHT22;65970;50.476;4.840;2023-12-20T21:36:46;9.10;47.20
77039;DHT22;65970;50.476;4.840;2023-12-20T21:41:46;9.10;47.20
77039;DHT22;65970;50.476;4.840;2023-12-20T21:46:47;9.10;47.20
77039;DHT22;65970;50.476;4.840;2023-12-20T21:51:47;9.10;47.30
77039;DHT22;65970;50.476;4.840;2023-12-20T21:56:48;9.10;47.20
77039;DHT22;65970;50.476;4.840;2023-12-20T22:01:48;9.10;47.30
77039;DHT22;65970;50.476;4.840;2023-12-20T22:06:49;9.10;47.30
77039;DHT22;65970;50.476;4.840;2023-12-20T22:11:49;9.10;47.30
77039;DHT22;65970;50.476;4.840;2023-12-20T22:16:50;9.10;47.40
77039;DHT22;65970;50.476;4.840;2023-12-20T22:21:50;9.20;47.40
77039;DHT22;65970;50.476;4.840;2023-12-20T22:26:51;9.20;47.40
77039;DHT22;65970;50.476;4.840;2023-12-20T22:31:52;9.20;47.40
77039;DHT22;65970;50.476;4.840;2023-12-20T22:36:52;9.20;47.40
77039;DHT22;65970;50.476;4.840;2023-12-20T22:41:53;9.20;47.50
77039;DHT22;65970;50.476;4.840;2023-12-20T22:46:53;9.20;47.40
77039;DHT22;65970;50.476;4.840;2023-12-20T22:51:54;9.20;47.40
77039;DHT22;65970;50.476;4.840;2023-12-20T22:56:54;9.20;47.40
77039;DHT22;65970;50.476;4.840;2023-12-20T23:01:55;9.20;47.40
77039;DHT22;65970;50.476;4.840;2023-12-20T23:06:55;9.20;47.40
77039;DHT22;65970;50.476;4.840;2023-12-20T23:11:56;9.20;47.40
77039;DHT22;65970;50.476;4.840;2023-12-20T23:16:57;9.30;47.50
77039;DHT22;65970;50.476;4.840;2023-12-20T23:21:57;9.30;47.50
77039;DHT22;65970;50.476;4.840;2023-12-20T23:26:58;9.30;47.50
77039;DHT22;65970;50.476;4.840;2023-12-20T23:31:58;9.30;47.60
77039;DHT22;65970;50.476;4.840;2023-12-20T23:36:59;9.30;47.60
77039;DHT22;65970;50.476;4.840;2023-12-20T23:41:59;9.30;47.70
77039;DHT22;65970;50.476;4.840;2023-12-20T23:47:00;9.30;47.60
77039;DHT22;65970;50.476;4.840;2023-12-20T23:52:01;9.40;47.70
77039;DHT22;65970;50.476;4.840;2023-12-20T23:57:02;9.40;47.70
